createdAt,value
2023-12-29T00:00:53.898Z,12.76
2023-12-29T00:03:21.350Z,12.74
2023-12-29T00:05:48.314Z,12.72
2023-12-29T00:08:15.288Z,12.68
2023-12-29T00:10:42.350Z,12.75
2023-12-29T00:13:09.242Z,12.75
2023-12-29T00:15:39.355Z,12.77
2023-12-29T00:18:06.987Z,12.77
2023-12-29T00:20:41.244Z,12.76
2023-12-29T00:23:09.188Z,12.73
2023-12-29T00:25:39.285Z,12.77
2023-12-29T00:28:06.707Z,12.76
2023-12-29T00:30:47.483Z,12.86
2023-12-29T00:33:20.892Z,12.87
2023-12-29T00:35:47.867Z,12.88
2023-12-29T00:38:14.819Z,12.87
2023-12-29T00:40:41.677Z,12.88
2023-12-29T00:43:08.743Z,12.64
2023-12-29T00:45:37.413Z,12.67
2023-12-29T00:48:04.987Z,12.59
2023-12-29T00:50:32.139Z,12.53
2023-12-29T00:52:59.122Z,12.43
2023-12-29T00:55:26.105Z,12.35
2023-12-29T00:57:53.155Z,12.28
2023-12-29T01:00:20.022Z,12.14
2023-12-29T01:02:47.298Z,12.09
2023-12-29T01:05:18.844Z,12.06
2023-12-29T01:07:45.721Z,11.82
2023-12-29T01:10:12.906Z,11.90
2023-12-29T01:12:39.982Z,11.99
2023-12-29T01:15:07.183Z,11.98
2023-12-29T01:17:34.391Z,12.02
2023-12-29T01:20:01.897Z,11.96
2023-12-29T01:22:28.766Z,12.01
2023-12-29T01:24:55.664Z,11.90
2023-12-29T01:27:22.821Z,11.90
2023-12-29T01:29:49.809Z,11.92
2023-12-29T01:32:16.697Z,11.88
2023-12-29T01:34:43.789Z,11.86
2023-12-29T01:37:10.991Z,11.98
2023-12-29T01:39:38.077Z,11.96
2023-12-29T01:42:05.683Z,12.03
2023-12-29T01:44:32.656Z,11.98
2023-12-29T01:47:02.859Z,12.01
2023-12-29T01:49:29.981Z,11.98
2023-12-29T01:51:58.657Z,12.14
2023-12-29T01:54:30.877Z,12.20
2023-12-29T01:56:58.856Z,12.24
2023-12-29T01:59:27.073Z,12.28
2023-12-29T02:01:55.881Z,12.27
2023-12-29T02:04:23.480Z,12.26
2023-12-29T02:06:50.372Z,12.23
2023-12-29T02:09:18.565Z,12.22
2023-12-29T02:11:46.340Z,12.26
2023-12-29T02:14:13.198Z,12.28
2023-12-29T02:16:58.937Z,12.32
2023-12-29T02:19:27.170Z,12.31
2023-12-29T02:21:54.122Z,12.29
2023-12-29T02:24:21.312Z,12.26
2023-12-29T02:26:51.195Z,12.25
2023-12-29T02:29:19.432Z,12.26
2023-12-29T02:31:46.414Z,12.29
2023-12-29T02:34:13.668Z,12.31
2023-12-29T02:36:44.027Z,12.35
2023-12-29T02:39:11.674Z,12.36
2023-12-29T02:41:39.606Z,12.27
2023-12-29T02:44:06.503Z,12.33
2023-12-29T02:46:33.556Z,12.26
2023-12-29T02:49:00.677Z,12.30
2023-12-29T02:51:27.591Z,12.21
2023-12-29T02:53:54.658Z,12.18
2023-12-29T02:56:21.587Z,12.22
2023-12-29T02:58:49.388Z,12.10
2023-12-29T03:01:16.622Z,12.06
2023-12-29T03:03:43.643Z,11.99
2023-12-29T03:06:10.668Z,11.97
2023-12-29T03:08:37.781Z,12.01
2023-12-29T03:11:04.915Z,11.95
2023-12-29T03:13:31.763Z,11.83
2023-12-29T03:15:58.752Z,11.99
2023-12-29T03:18:25.840Z,12.03
2023-12-29T03:20:52.980Z,12.07
2023-12-29T03:23:19.973Z,12.02
2023-12-29T03:25:46.957Z,12.14
2023-12-29T03:28:13.931Z,12.13
2023-12-29T03:30:41.071Z,12.20
2023-12-29T03:33:08.166Z,11.96
2023-12-29T03:35:35.228Z,12.22
2023-12-29T03:38:02.717Z,12.24
2023-12-29T03:40:29.798Z,12.19
2023-12-29T03:42:56.689Z,12.21
2023-12-29T03:45:23.617Z,12.14
2023-12-29T03:47:50.571Z,12.09
2023-12-29T03:50:17.577Z,12.02
2023-12-29T03:52:44.571Z,12.00
2023-12-29T03:55:12.737Z,12.09
2023-12-29T03:57:39.704Z,12.11
2023-12-29T04:00:07.773Z,12.13
2023-12-29T04:02:35.004Z,12.16
2023-12-29T04:05:02.883Z,12.17
2023-12-29T04:07:29.953Z,12.16
2023-12-29T04:09:56.846Z,12.04
2023-12-29T04:12:23.828Z,12.09
2023-12-29T04:14:50.721Z,12.08
2023-12-29T04:17:18.149Z,12.08
2023-12-29T04:19:45.073Z,12.03
2023-12-29T04:22:12.247Z,12.08
2023-12-29T04:24:39.227Z,12.04
2023-12-29T04:27:06.144Z,12.01
2023-12-29T04:29:33.136Z,12.09
2023-12-29T04:32:00.005Z,12.12
2023-12-29T04:34:27.958Z,12.15
2023-12-29T04:36:54.999Z,12.18
2023-12-29T04:39:21.881Z,12.09
2023-12-29T04:41:48.780Z,12.21
2023-12-29T04:44:15.705Z,12.21
2023-12-29T04:46:42.546Z,12.23
2023-12-29T04:49:10.141Z,12.18
2023-12-29T04:51:37.201Z,12.17
2023-12-29T04:54:04.114Z,12.03
2023-12-29T04:56:31.102Z,12.06
2023-12-29T04:58:58.147Z,11.96
2023-12-29T05:01:25.112Z,12.00
2023-12-29T05:03:52.332Z,11.97
2023-12-29T05:06:19.264Z,11.94
2023-12-29T05:08:46.130Z,11.92
2023-12-29T05:11:13.137Z,11.91
2023-12-29T05:13:40.036Z,11.88
2023-12-29T05:16:07.413Z,11.86
2023-12-29T05:18:34.601Z,11.82
2023-12-29T05:21:01.618Z,11.87
2023-12-29T05:23:28.491Z,11.88
2023-12-29T05:25:55.437Z,11.89
2023-12-29T05:28:22.546Z,11.89
2023-12-29T05:30:49.580Z,11.90
2023-12-29T05:33:16.550Z,11.89
2023-12-29T05:35:43.818Z,11.89
2023-12-29T05:38:10.756Z,11.91
2023-12-29T05:40:37.756Z,11.93
2023-12-29T05:43:05.115Z,11.85
2023-12-29T05:45:32.002Z,11.79
2023-12-29T05:47:59.274Z,11.74
2023-12-29T05:50:26.285Z,11.61
2023-12-29T05:52:53.271Z,11.66
2023-12-29T05:55:20.449Z,11.58
2023-12-29T05:57:47.473Z,11.58
2023-12-29T06:00:15.691Z,11.59
2023-12-29T06:02:43.493Z,11.59
2023-12-29T06:05:13.779Z,11.48
2023-12-29T06:07:40.955Z,11.53
2023-12-29T06:10:09.551Z,11.49
2023-12-29T06:12:36.826Z,11.45
2023-12-29T06:15:03.895Z,11.44
2023-12-29T06:17:30.856Z,11.40
2023-12-29T06:19:57.850Z,11.36
2023-12-29T06:22:24.805Z,11.37
2023-12-29T06:24:51.767Z,11.29
2023-12-29T06:27:18.802Z,11.31
2023-12-29T06:29:45.837Z,11.37
2023-12-29T06:32:12.780Z,11.35
2023-12-29T06:34:39.969Z,11.31
2023-12-29T06:37:08.031Z,11.31
2023-12-29T06:39:34.943Z,11.25
2023-12-29T06:42:01.992Z,11.30
2023-12-29T06:44:28.870Z,11.31
2023-12-29T06:46:55.711Z,11.29
2023-12-29T06:49:22.831Z,11.31
2023-12-29T06:51:49.850Z,11.30
2023-12-29T06:54:16.794Z,11.25
2023-12-29T06:56:44.020Z,11.30
2023-12-29T06:59:10.938Z,11.30
2023-12-29T07:01:41.399Z,11.32
2023-12-29T07:04:12.007Z,11.33
2023-12-29T07:06:39.069Z,11.34
2023-12-29T07:09:06.340Z,11.33
2023-12-29T07:11:33.376Z,11.19
2023-12-29T07:14:00.211Z,11.25
2023-12-29T07:16:27.494Z,11.29
2023-12-29T07:18:54.683Z,11.27
2023-12-29T07:21:21.717Z,11.26
2023-12-29T07:23:48.660Z,11.25
2023-12-29T07:26:15.727Z,10.98
2023-12-29T07:28:42.789Z,11.17
2023-12-29T07:31:09.846Z,11.14
2023-12-29T07:33:37.100Z,11.18
2023-12-29T07:36:04.342Z,11.14
2023-12-29T07:38:33.799Z,11.20
2023-12-29T07:41:00.705Z,11.23
2023-12-29T07:43:28.326Z,11.21
2023-12-29T07:45:55.172Z,11.19
2023-12-29T07:48:22.192Z,11.22
2023-12-29T07:50:49.100Z,11.18
2023-12-29T07:53:15.955Z,11.20
2023-12-29T07:55:44.766Z,11.11
2023-12-29T07:58:12.441Z,11.21
2023-12-29T08:00:39.560Z,11.15
2023-12-29T08:03:07.044Z,11.23
2023-12-29T08:05:35.138Z,11.25
2023-12-29T08:08:02.332Z,11.19
2023-12-29T08:10:29.522Z,11.17
2023-12-29T08:12:56.446Z,11.30
2023-12-29T08:15:23.311Z,11.30
2023-12-29T08:17:50.848Z,11.21
2023-12-29T08:20:17.757Z,11.33
2023-12-29T08:22:44.695Z,11.33
2023-12-29T08:25:11.857Z,11.32
2023-12-29T08:27:38.813Z,11.27
2023-12-29T08:30:06.494Z,11.21
2023-12-29T08:32:35.028Z,11.30
2023-12-29T08:35:02.118Z,11.40
2023-12-29T08:37:29.089Z,11.40
2023-12-29T08:39:56.965Z,11.41
2023-12-29T08:42:24.721Z,11.28
2023-12-29T08:44:51.562Z,11.38
2023-12-29T08:47:18.557Z,11.37
2023-12-29T08:49:45.501Z,11.33
2023-12-29T08:52:12.521Z,11.30
2023-12-29T08:54:39.526Z,11.35
2023-12-29T08:57:08.029Z,11.36
2023-12-29T08:59:34.987Z,11.35
2023-12-29T09:02:02.240Z,11.30
2023-12-29T09:04:29.322Z,11.27
2023-12-29T09:06:56.266Z,11.38
2023-12-29T09:09:23.346Z,11.36
2023-12-29T09:11:50.352Z,11.34
2023-12-29T09:14:17.783Z,11.38
2023-12-29T09:16:47.638Z,11.38
2023-12-29T09:19:22.906Z,11.17
2023-12-29T09:21:58.269Z,11.36
2023-12-29T09:24:25.287Z,11.40
2023-12-29T09:26:53.648Z,11.37
2023-12-29T09:29:20.619Z,11.37
2023-12-29T09:31:47.526Z,11.38
2023-12-29T09:34:14.476Z,11.42
2023-12-29T09:36:41.500Z,11.43
2023-12-29T09:39:09.298Z,11.41
2023-12-29T09:41:36.130Z,11.44
2023-12-29T09:44:03.288Z,11.47
2023-12-29T09:46:30.281Z,11.47
2023-12-29T09:48:57.391Z,11.44
2023-12-29T09:51:25.333Z,11.47
2023-12-29T09:53:53.261Z,11.46
2023-12-29T09:56:20.479Z,11.45
2023-12-29T09:58:49.343Z,11.46
2023-12-29T10:01:16.330Z,11.50
2023-12-29T10:03:43.356Z,11.53
2023-12-29T10:06:10.934Z,11.46
2023-12-29T10:08:38.029Z,11.55
2023-12-29T10:11:04.985Z,11.58
2023-12-29T10:13:31.883Z,11.67
2023-12-29T10:16:14.042Z,11.72
2023-12-29T10:18:48.668Z,11.78
2023-12-29T10:21:27.291Z,11.74
2023-12-29T10:24:32.971Z,11.81
2023-12-29T10:26:59.859Z,11.73
2023-12-29T10:29:29.137Z,11.86
2023-12-29T10:31:56.322Z,11.88
2023-12-29T10:34:33.271Z,11.82
2023-12-29T10:37:00.619Z,11.93
2023-12-29T10:39:27.587Z,11.90
2023-12-29T10:42:06.453Z,11.98
2023-12-29T10:44:34.499Z,12.04
2023-12-29T10:47:17.468Z,12.11
2023-12-29T10:49:44.482Z,12.17
2023-12-29T10:52:18.200Z,12.14
2023-12-29T10:54:45.667Z,12.27
2023-12-29T10:57:13.255Z,12.32
2023-12-29T10:59:40.684Z,12.37
2023-12-29T11:02:10.031Z,12.43
2023-12-29T11:04:37.116Z,12.38
2023-12-29T11:07:04.484Z,12.61
2023-12-29T11:09:32.346Z,12.69
2023-12-29T11:12:00.539Z,12.71
2023-12-29T11:14:27.783Z,12.69
2023-12-29T11:16:54.722Z,12.70
2023-12-29T11:19:22.233Z,12.75
2023-12-29T11:21:55.006Z,12.79
2023-12-29T11:24:28.326Z,12.67
2023-12-29T11:27:02.249Z,12.61
2023-12-29T11:29:29.151Z,12.63
2023-12-29T11:31:57.582Z,12.59
2023-12-29T11:34:44.199Z,12.53
2023-12-29T11:37:32.401Z,12.66
2023-12-29T11:40:14.631Z,12.67
2023-12-29T11:42:41.746Z,12.59
2023-12-29T11:45:27.811Z,12.63
2023-12-29T11:47:58.310Z,12.72
2023-12-29T11:50:33.183Z,12.74
2023-12-29T11:53:00.849Z,12.75
2023-12-29T11:55:46.070Z,12.77
2023-12-29T11:58:32.313Z,12.72
2023-12-29T12:00:59.365Z,12.77
2023-12-29T12:03:27.444Z,12.68
2023-12-29T12:05:55.867Z,12.81
2023-12-29T12:08:33.707Z,12.83
2023-12-29T12:11:33.323Z,12.86
2023-12-29T12:14:00.628Z,12.88
2023-12-29T12:16:48.905Z,12.88
2023-12-29T12:19:16.782Z,12.88
2023-12-29T12:21:43.942Z,12.90
2023-12-29T12:24:11.001Z,12.91
2023-12-29T12:26:37.971Z,12.92
2023-12-29T12:29:05.576Z,12.80
2023-12-29T12:31:32.573Z,12.83
2023-12-29T12:34:01.863Z,12.82
2023-12-29T12:36:28.906Z,12.88
2023-12-29T12:38:59.598Z,12.86
2023-12-29T12:41:27.564Z,12.79
2023-12-29T12:44:14.009Z,12.84
2023-12-29T12:46:53.938Z,12.82
2023-12-29T12:49:20.922Z,12.79
2023-12-29T12:51:47.984Z,12.78
2023-12-29T12:54:16.558Z,12.81
2023-12-29T12:56:44.106Z,12.83
2023-12-29T12:59:11.010Z,12.84
2023-12-29T13:01:38.288Z,12.84
2023-12-29T13:04:09.571Z,12.85
2023-12-29T13:06:40.766Z,12.84
2023-12-29T13:09:12.717Z,12.86
2023-12-29T13:11:41.966Z,12.85
2023-12-29T13:14:08.964Z,12.83
2023-12-29T13:16:39.803Z,12.76
2023-12-29T13:19:25.911Z,12.66
2023-12-29T13:21:57.138Z,12.68
2023-12-29T13:24:24.929Z,12.68
2023-12-29T13:26:59.204Z,12.69
2023-12-29T13:29:26.552Z,12.62
2023-12-29T13:31:59.058Z,12.64
2023-12-29T13:34:46.583Z,12.63
2023-12-29T13:37:23.559Z,12.54
2023-12-29T13:40:28.800Z,12.61
2023-12-29T13:42:58.823Z,12.61
2023-12-29T13:45:26.028Z,12.55
2023-12-29T13:47:53.168Z,12.53
2023-12-29T13:50:20.140Z,12.50
2023-12-29T13:52:46.984Z,12.40
2023-12-29T13:55:13.935Z,12.52
2023-12-29T13:57:40.824Z,12.56
2023-12-29T14:00:22.506Z,12.59
2023-12-29T14:02:52.558Z,12.57
2023-12-29T14:05:28.987Z,12.62
2023-12-29T14:08:04.851Z,12.66
2023-12-29T14:10:32.325Z,12.66
2023-12-29T14:13:06.765Z,12.59
2023-12-29T14:15:38.335Z,12.65
2023-12-29T14:18:34.543Z,12.62
2023-12-29T14:21:02.029Z,12.54
2023-12-29T14:23:28.895Z,12.60
2023-12-29T14:26:04.015Z,12.52
2023-12-29T14:28:30.981Z,12.61
2023-12-29T14:31:05.246Z,12.65
2023-12-29T14:33:32.325Z,12.66
2023-12-29T14:35:59.274Z,12.66
2023-12-29T14:38:26.696Z,12.68
2023-12-29T14:40:53.563Z,12.67
2023-12-29T14:43:20.520Z,12.68
2023-12-29T14:45:47.466Z,12.70
2023-12-29T14:48:14.584Z,12.68
2023-12-29T14:50:46.522Z,12.70
2023-12-29T14:53:14.183Z,12.69
2023-12-29T14:55:41.374Z,12.63
2023-12-29T14:58:08.336Z,12.61
2023-12-29T15:00:35.307Z,12.59
2023-12-29T15:03:02.449Z,12.57
2023-12-29T15:05:29.625Z,12.57
2023-12-29T15:07:56.563Z,12.55
2023-12-29T15:10:23.528Z,12.56
2023-12-29T15:12:50.905Z,12.55
2023-12-29T15:15:17.915Z,12.53
2023-12-29T15:17:45.166Z,12.55
2023-12-29T15:20:12.500Z,12.45
2023-12-29T15:22:39.525Z,12.53
2023-12-29T15:25:07.089Z,12.47
2023-12-29T15:27:34.467Z,12.54
2023-12-29T15:30:01.830Z,12.58
2023-12-29T15:32:28.762Z,12.58
2023-12-29T15:34:55.971Z,12.47
2023-12-29T15:37:23.140Z,12.54
2023-12-29T15:39:50.091Z,12.53
2023-12-29T15:42:17.036Z,12.47
2023-12-29T15:44:43.990Z,12.57
2023-12-29T15:47:10.844Z,12.55
2023-12-29T15:49:40.996Z,12.56
2023-12-29T15:52:08.301Z,12.55
2023-12-29T15:54:35.605Z,12.55
2023-12-29T15:57:07.342Z,12.56
2023-12-29T15:59:34.398Z,12.49
2023-12-29T16:02:01.398Z,12.37
2023-12-29T16:04:29.405Z,12.53
2023-12-29T16:06:56.744Z,12.47
2023-12-29T16:09:23.804Z,12.49
2023-12-29T16:11:51.122Z,12.56
2023-12-29T16:14:22.441Z,12.56
2023-12-29T16:16:49.393Z,12.52
2023-12-29T16:19:16.479Z,12.55
2023-12-29T16:21:43.688Z,12.55
2023-12-29T16:24:23.796Z,12.52
2023-12-29T16:26:52.478Z,12.43
2023-12-29T16:29:19.633Z,12.50
2023-12-29T16:31:46.570Z,12.48
2023-12-29T16:34:13.810Z,12.37
2023-12-29T16:36:41.034Z,12.42
2023-12-29T16:39:07.957Z,12.42
2023-12-29T16:41:35.798Z,12.45
2023-12-29T16:44:02.712Z,12.47
2023-12-29T16:46:29.748Z,12.49
2023-12-29T16:48:56.924Z,12.51
2023-12-29T16:51:23.954Z,12.54
2023-12-29T16:53:50.825Z,12.54
2023-12-29T16:56:17.840Z,12.56
2023-12-29T16:58:45.159Z,12.54
2023-12-29T17:01:12.846Z,12.60
2023-12-29T17:03:39.865Z,12.61
2023-12-29T17:06:07.469Z,12.55
2023-12-29T17:08:36.599Z,12.60
2023-12-29T17:11:05.420Z,12.59
2023-12-29T17:13:35.188Z,12.60
2023-12-29T17:16:05.107Z,12.60
2023-12-29T17:18:33.243Z,12.60
2023-12-29T17:21:00.106Z,12.63
2023-12-29T17:23:26.960Z,12.62
2023-12-29T17:25:58.729Z,12.62
2023-12-29T17:28:26.415Z,12.57
2023-12-29T17:30:53.677Z,12.64
2023-12-29T17:33:20.728Z,12.63
2023-12-29T17:35:47.756Z,12.66
2023-12-29T17:38:14.676Z,12.60
2023-12-29T17:40:41.750Z,12.66
2023-12-29T17:43:08.656Z,12.65
2023-12-29T17:45:35.947Z,12.67
2023-12-29T17:48:03.336Z,12.65
2023-12-29T17:50:30.343Z,12.65
2023-12-29T17:52:57.197Z,12.64
2023-12-29T17:55:24.294Z,12.69
2023-12-29T17:57:51.236Z,12.54
2023-12-29T18:00:18.320Z,12.64
2023-12-29T18:02:45.980Z,12.69
2023-12-29T18:05:12.886Z,12.65
2023-12-29T18:07:39.818Z,12.64
2023-12-29T18:10:08.999Z,12.70
2023-12-29T18:12:35.990Z,12.75
2023-12-29T18:15:02.934Z,12.75
2023-12-29T18:17:34.797Z,12.78
2023-12-29T18:20:01.854Z,12.78
2023-12-29T18:22:28.820Z,12.78
2023-12-29T18:24:55.957Z,12.78
2023-12-29T18:27:23.136Z,12.70
2023-12-29T18:29:50.057Z,12.75
2023-12-29T18:32:21.239Z,12.78
2023-12-29T18:34:51.359Z,12.79
2023-12-29T18:37:19.313Z,12.81
2023-12-29T18:39:48.636Z,12.81
2023-12-29T18:42:15.715Z,12.81
2023-12-29T18:44:42.799Z,12.81
2023-12-29T18:47:10.741Z,12.81
2023-12-29T18:49:38.351Z,12.77
2023-12-29T18:52:05.842Z,12.81
2023-12-29T18:54:35.627Z,12.82
2023-12-29T18:57:03.425Z,12.67
2023-12-29T18:59:31.148Z,12.82
2023-12-29T19:02:01.005Z,12.79
2023-12-29T19:04:28.187Z,12.89
2023-12-29T19:06:55.610Z,12.89
2023-12-29T19:09:22.715Z,12.78
2023-12-29T19:11:49.717Z,12.81
2023-12-29T19:14:17.911Z,12.78
2023-12-29T19:16:44.898Z,12.71
2023-12-29T19:19:12.008Z,12.71
2023-12-29T19:21:47.217Z,12.64
2023-12-29T19:24:14.353Z,12.66
2023-12-29T19:26:41.173Z,12.68
2023-12-29T19:29:09.023Z,12.66
2023-12-29T19:31:38.550Z,12.68
2023-12-29T19:34:06.171Z,12.68
2023-12-29T19:36:33.338Z,12.60
2023-12-29T19:39:00.290Z,12.65
2023-12-29T19:41:36.422Z,12.47
2023-12-29T19:44:04.364Z,12.66
2023-12-29T19:46:31.767Z,12.63
2023-12-29T19:49:00.478Z,12.60
2023-12-29T19:51:27.531Z,12.60
2023-12-29T19:53:54.444Z,12.62
2023-12-29T19:56:30.140Z,12.64
2023-12-29T19:58:57.354Z,12.55
2023-12-29T20:01:24.814Z,12.59
2023-12-29T20:03:52.288Z,12.68
2023-12-29T20:06:23.825Z,12.66
2023-12-29T20:08:51.439Z,12.70
2023-12-29T20:11:19.051Z,12.71
2023-12-29T20:13:45.976Z,12.73
2023-12-29T20:16:24.712Z,12.63
2023-12-29T20:18:53.539Z,12.70
2023-12-29T20:21:27.594Z,12.68
2023-12-29T20:23:55.119Z,12.61
2023-12-29T20:26:26.381Z,12.64
2023-12-29T20:28:55.463Z,12.64
2023-12-29T20:31:32.196Z,12.69
2023-12-29T20:33:59.639Z,12.70
2023-12-29T20:36:26.978Z,12.62
2023-12-29T20:38:55.878Z,12.65
2023-12-29T20:41:23.778Z,12.70
2023-12-29T20:43:54.799Z,12.71
2023-12-29T20:46:21.838Z,12.67
2023-12-29T20:48:49.269Z,12.76
2023-12-29T20:51:19.959Z,12.69
2023-12-29T20:53:47.457Z,12.70
2023-12-29T20:56:14.694Z,12.81
2023-12-29T20:58:41.656Z,12.76
2023-12-29T21:01:09.618Z,12.82
2023-12-29T21:03:37.221Z,12.83
2023-12-29T21:06:05.525Z,12.82
2023-12-29T21:08:35.501Z,12.72
2023-12-29T21:11:02.561Z,12.65
2023-12-29T21:13:29.719Z,12.72
2023-12-29T21:15:56.761Z,12.69
2023-12-29T21:18:23.942Z,12.65
2023-12-29T21:20:52.868Z,12.66
2023-12-29T21:23:20.389Z,12.67
2023-12-29T21:25:47.443Z,12.67
2023-12-29T21:28:14.330Z,12.59
2023-12-29T21:30:42.943Z,12.68
2023-12-29T21:33:10.122Z,12.69
2023-12-29T21:35:37.307Z,12.69
2023-12-29T21:38:04.508Z,12.61
2023-12-29T21:40:31.856Z,12.66
2023-12-29T21:42:59.213Z,12.67
2023-12-29T21:45:27.779Z,12.60
2023-12-29T21:47:55.153Z,12.65
2023-12-29T21:50:22.336Z,12.70
2023-12-29T21:52:49.401Z,12.65
2023-12-29T21:55:16.473Z,12.72
2023-12-29T21:57:43.486Z,12.72
2023-12-29T22:00:14.007Z,12.56
2023-12-29T22:02:45.066Z,12.69
2023-12-29T22:05:12.657Z,12.72
2023-12-29T22:07:41.327Z,12.72
2023-12-29T22:10:09.099Z,12.54
2023-12-29T22:12:35.957Z,12.71
2023-12-29T22:15:03.010Z,12.70
2023-12-29T22:17:30.224Z,12.60
2023-12-29T22:19:57.183Z,12.48
2023-12-29T22:22:24.253Z,12.63
2023-12-29T22:24:51.489Z,12.59
2023-12-29T22:27:18.384Z,12.62
2023-12-29T22:29:45.327Z,12.52
2023-12-29T22:32:12.337Z,12.55
2023-12-29T22:34:39.373Z,12.57
2023-12-29T22:37:07.337Z,12.57
2023-12-29T22:39:34.427Z,12.54
2023-12-29T22:42:02.773Z,12.60
2023-12-29T22:44:29.806Z,12.56
2023-12-29T22:46:56.731Z,12.62
2023-12-29T22:49:23.813Z,12.63
2023-12-29T22:51:50.809Z,12.63
2023-12-29T22:54:17.861Z,12.59
2023-12-29T22:56:45.628Z,12.65
2023-12-29T22:59:13.576Z,12.62
2023-12-29T23:01:41.494Z,12.66
2023-12-29T23:04:08.749Z,12.66
2023-12-29T23:06:35.858Z,12.61
2023-12-29T23:09:03.248Z,12.67
2023-12-29T23:11:30.194Z,12.73
2023-12-29T23:13:57.673Z,12.74
2023-12-29T23:16:24.747Z,12.73
2023-12-29T23:18:52.878Z,12.75
2023-12-29T23:21:20.926Z,12.75
2023-12-29T23:23:47.932Z,12.67
2023-12-29T23:26:15.145Z,12.70
2023-12-29T23:28:42.162Z,12.68
2023-12-29T23:31:10.542Z,12.65
2023-12-29T23:33:37.892Z,12.65
2023-12-29T23:36:07.307Z,12.66
2023-12-29T23:38:34.295Z,12.65
2023-12-29T23:41:01.662Z,12.66
2023-12-29T23:43:29.205Z,12.57
2023-12-29T23:45:56.293Z,12.63
2023-12-29T23:48:23.311Z,12.66
2023-12-29T23:50:50.199Z,12.66
2023-12-29T23:53:17.188Z,12.65
2023-12-29T23:55:44.058Z,12.62
2023-12-29T23:58:11.472Z,12.60
